Latest Coastal Weather Observations for Mornington Island Airport

IDQ60701

Issued at 1:32 pm EST Tuesday 26 May 2020 (issued every 10 minutes, with the page automatically refreshed every 10 minutes)

About coastal observations | Map of coastal stations | Coastal observations for QLD | Marine services | Other Formats
Station Details ID: 029182 Name: MORNINGTON ISLAND AIRPORT Lat: -16.66 Lon: 139.17 Height: 9.52 m
Data from the previous 72 hours. | See also: Recent months at Mornington Island Airport
Date/Time
EST
Wind Sea
Height
m
Swell Vis
km
Cloud Weather Temp
°C
Press
hPa
Rain since
9am
mm
Dir  Spd
kts
Gust
kts
Height
m
Period
s
Dir
26/01:30pm SSE 10 16 - - - - 10 Clear - 21.9 1016.8 0.0
26/01:00pm SSE 9 14 - - - - 10 - - 21.8 1017.3 0.0
26/12:30pm SSE 9 15 - - - - 10 - - 22.2 1017.7 0.0
26/12:00pm SSE 10 15 - - - - 10 - - 22.2 1018.2 0.0
26/11:30am SSE 11 16 - - - - 10 - - 22.1 1018.5 0.0
26/11:00am SSE 9 13 - - - - 10 - - 22.2 1019.1 0.0
26/10:30am SE 9 13 - - - - 10 - - 22.5 1019.4 0.0
26/10:00am SE 9 12 - - - - 10 - - 22.1 1019.6 0.0
26/09:30am SE 9 13 - - - - 10 - - 21.6 1019.7 0.0
26/09:00am ESE 5 7 - - - - 10 - - 20.8 1019.6 -
26/08:30am ESE 5 6 - - - - 10 - - 19.2 1019.1 -
26/08:00am E 4 5 - - - - 10 - - 18.1 1019.0 -
26/07:30am ESE 5 7 - - - - 10 - - 17.6 1018.5 -
26/07:00am SE 7 9 - - - - 10 - - 17.6 1018.3 -
26/06:30am SE 7 9 - - - - 10 - - 17.7 1017.9 -
26/06:00am SE 6 9 - - - - 10 - - 17.7 1017.9 -
26/05:30am SE 6 8 - - - - 10 - - 17.3 1017.5 -
26/05:00am SE 7 9 - - - - 10 - - 17.6 1017.3 -
26/04:30am SE 6 8 - - - - 10 - - 17.2 1017.2 -
26/04:00am SE 7 11 - - - - 10 - - 17.8 1017.3 -
26/03:30am SE 6 9 - - - - 10 - - 17.7 1017.3 -
26/03:00am SSE 6 10 - - - - 10 - - 17.3 1017.6 -
26/02:30am SSE 4 6 - - - - 10 - - 15.4 1017.7 -
26/02:00am SSE 3 5 - - - - 10 - - 15.3 1017.8 -
26/01:00am SSE 4 5 - - - - 10 - - 14.2 1017.9 0.0
26/12:30am SE 5 6 - - - - 10 - - 12.8 1018.0 0.0
26/12:00am SSE 4 4 - - - - 10 - - 12.7 1018.2 0.0
 
Date/Time
EST
Wind Sea
Height
m
Swell Vis
km
Cloud Weather Temp
°C
Press
hPa
Rain since
9am
mm
Dir  Spd
kts
Gust
kts
Height
m
Period
s
Dir
25/11:30pm SSE 3 5 - - - - 10 - - 12.7 1018.2 0.0
25/11:00pm CALM 0 0 - - - - 10 - - 13.2 1018.6 0.0
25/10:30pm CALM 0 0 - - - - 10 - - 14.0 1018.7 0.0
25/10:00pm CALM 0 0 - - - - 10 - - 13.7 1018.6 0.0
25/09:30pm CALM 0 0 - - - - 10 - - 14.5 1018.5 0.0
25/09:00pm NNE 4 5 - - - - 10 - - 14.5 1018.3 0.0
25/08:30pm ESE 3 4 - - - - 10 - - 15.1 1018.0 0.0
25/08:00pm ESE 3 4 - - - - 10 - - 16.4 1017.5 0.0
25/07:30pm ESE 4 6 - - - - 10 - - 17.8 1017.2 0.0
25/07:00pm SE 5 6 - - - - 10 - - 18.0 1016.9 0.0
25/06:30pm ESE 7 8 - - - - 10 - - 18.9 1016.7 0.0
25/06:00pm ESE 9 12 - - - - 10 - - 19.9 1016.4 0.0
25/05:30pm ESE 9 13 - - - - 10 - - 20.6 1016.1 0.0
25/05:00pm ESE 10 14 - - - - 10 - - 21.1 1015.9 0.0
25/04:30pm SE 11 15 - - - - 10 - - 21.4 1015.8 0.0
25/04:00pm SE 11 17 - - - - 10 - - 21.2 1015.8 0.0
25/03:30pm SE 13 18 - - - - 10 - - 21.3 1015.9 0.0
25/03:00pm SE 12 19 - - - - 10 - - 21.3 1016.4 0.0
25/02:30pm SE 13 19 - - - - 10 - - 21.7 1016.5 0.0
25/02:00pm SE 14 20 - - - - 10 - - 21.6 1016.9 0.0
25/01:30pm SE 15 19 - - - - 10 - - 21.5 1017.4 0.0
25/01:00pm SE 14 22 - - - - 10 - - 21.5 1018.0 0.0
25/12:30pm SSE 12 19 - - - - 10 - - 21.3 1018.4 0.0
25/12:00pm SSE 13 19 - - - - 10 - - 20.4 1018.7 0.0
25/11:30am SSE 12 18 - - - - 10 - - 20.5 1019.2 0.0
25/11:00am SSE 11 17 - - - - 10 - - 20.5 1019.7 0.0
25/10:30am SSE 10 17 - - - - 10 - - 20.3 1020.0 0.0
25/10:00am SSE 11 16 - - - - 10 - - 19.9 1019.9 0.0
25/09:30am SSE 11 17 - - - - 10 - - 19.8 1020.0 0.0
25/09:00am SSE 9 13 - - - - 10 - - 19.1 1020.1 0.0
25/08:30am S 7 11 - - - - 10 - - 19.0 1019.7 0.0
25/08:00am S 6 9 - - - - 10 - - 18.8 1019.7 0.0
25/07:30am SE 7 10 - - - - 10 - - 18.5 1019.5 0.0
25/07:00am SE 7 10 - - - - 10 - - 18.1 1019.2 0.0
25/06:30am SSE 8 13 - - - - 10 - - 18.3 1019.0 0.0
25/06:00am SE 8 11 - - - - 10 - - 18.5 1018.8 0.0
25/05:30am SE 8 14 - - - - 10 - - 18.6 1018.5 0.0
25/05:00am SE 7 11 - - - - 10 - - 18.4 1018.1 0.0
25/04:30am SE 9 13 - - - - 10 - - 18.6 1017.8 0.0
25/04:00am SSE 11 16 - - - - 10 - - 18.8 1017.4 0.0
25/03:30am SSE 8 13 - - - - 10 - - 18.1 1017.9 0.0
25/03:00am ESE 6 7 - - - - 10 - - 16.0 1018.2 0.0
25/02:30am SE 5 6 - - - - 10 - - 13.7 1018.5 0.0
25/02:00am ESE 4 6 - - - - 10 - - 13.4 1018.5 0.0
25/01:30am E 4 5 - - - - 10 - - 13.8 1018.5 0.0
25/01:00am ESE 4 6 - - - - 10 - - 15.0 1018.4 0.0
25/12:30am ESE 5 7 - - - - 10 - - 16.0 1018.5 0.0
25/12:00am ESE 5 6 - - - - 10 - - 15.9 1018.7 0.0
 
Date/Time
EST
Wind Sea
Height
m
Swell Vis
km
Cloud Weather Temp
°C
Press
hPa
Rain since
9am
mm
Dir  Spd
kts
Gust
kts
Height
m
Period
s
Dir
24/11:30pm ESE 6 7 - - - - 10 - - 15.9 1019.0 0.0
24/11:00pm SE 4 5 - - - - 10 - - 13.9 1019.0 0.0
24/10:30pm ESE 4 5 - - - - 10 - - 13.2 1019.0 0.0
24/10:00pm CALM 0 1 - - - - 10 - - 13.3 1018.9 0.0
24/09:30pm E 2 3 - - - - 10 - - 13.6 1018.8 0.0
24/09:00pm E 3 4 - - - - 10 - - 14.0 1018.6 0.0
24/08:38pm E 2 5 - - - - 10 - - 14.0 1018.3 0.0
24/08:30pm CALM 0 0 - - - - 10 - - 14.4 1018.3 0.0
24/08:17pm CALM 0 0 - - - - 2 - - 14.5 1018.2 0.0
24/08:00pm E 1 4 - - - - 10 - - 14.7 1018.1 0.0
24/07:30pm ESE 3 4 - - - - 10 - - 15.4 1018.0 0.0
24/07:00pm E 4 5 - - - - 10 - - 16.5 1017.8 0.0
24/06:30pm E 6 7 - - - - 10 - - 17.9 1017.4 0.0
24/06:00pm ESE 8 11 - - - - 10 - - 18.8 1017.3 0.0
24/05:30pm ESE 8 11 - - - - 10 - - 19.5 1017.0 0.0
24/05:00pm ESE 9 11 - - - - 10 - - 20.2 1016.9 0.0
24/04:30pm SE 10 15 - - - - 10 - - 20.1 1017.1 0.0
24/04:00pm SE 10 15 - - - - 10 - - 20.3 1017.2 0.0
24/03:30pm SE 10 16 - - - - 10 - - 20.5 1017.1 0.0
24/03:00pm SE 12 19 - - - - 10 - - 19.7 1017.3 0.0
24/02:30pm SE 12 19 - - - - 10 - - 20.5 1017.6 0.0
24/02:00pm SE 13 23 - - - - 10 - - 19.7 1018.1 0.0
24/01:30pm SE 15 23 - - - - 10 - - 19.8 1018.7 0.0
24/01:00pm SE 15 23 - - - - 10 - - 19.7 1019.2 0.0
24/12:48pm SE 15 25 - - - - 10 - - 19.3 1019.2 0.0
24/12:30pm SE 16 24 - - - - 10 - - 19.7 1019.5 0.0
24/12:09pm SE 16 26 - - - - 10 - - 20.0 1020.0 0.0
24/12:00pm SE 16 25 - - - - 10 - - 19.4 1020.0 0.0
24/11:30am SE 15 25 - - - - 10 - - 19.3 1020.3 0.0
24/11:28am SE 15 25 - - - - 10 - - 19.6 1020.2 0.0
24/11:00am SE 15 24 - - - - 10 - - 19.4 1020.6 0.0
24/10:30am SE 16 25 - - - - 10 - - 18.8 1020.7 0.0
24/10:00am SE 17 27 - - - - 10 - - 18.6 1020.5 0.0
24/09:30am SE 17 32 - - - - 10 - - 18.4 1019.9 0.0
24/09:02am SE 18 28 - - - - 10 - - 18.0 1019.9 0.0
24/09:00am SE 18 27 - - - - 10 - - 17.9 1019.9 0.2
24/08:38am SE 16 27 - - - - 10 - - 17.4 1019.4 0.2
24/08:30am SE 15 24 - - - - 10 - - 17.3 1019.4 0.2
24/08:09am SE 16 26 - - - - 10 - - 17.0 1019.3 0.2
24/08:00am SE 15 22 - - - - 10 - - 16.9 1019.4 0.2
24/07:34am SE 15 25 - - - - 10 - - 16.8 1019.2 0.2
24/07:30am SE 13 25 - - - - 10 - - 16.7 1019.3 0.2
24/07:00am SE 12 22 - - - - 10 - - 16.3 1018.8 0.2
24/06:30am SE 14 22 - - - - 10 - - 16.6 1018.5 0.2
24/06:02am SSE 15 25 - - - - 10 - - 16.8 1017.9 0.2
24/06:00am SSE 15 24 - - - - 10 - - 16.7 1017.9 0.2
24/05:30am SSE 14 22 - - - - 10 - - 16.8 1017.7 0.2
24/05:16am SSE 15 25 - - - - 10 - - 17.1 1017.6 0.2
24/05:00am SSE 14 22 - - - - 10 - - 17.0 1017.6 0.2
24/04:36am SSE 15 25 - - - - 10 - - 17.3 1017.5 0.2
24/04:30am SE 13 22 - - - - 10 - - 17.1 1017.6 0.2
24/04:00am SE 14 23 - - - - 10 - - 17.4 1017.5 0.2
24/03:30am SE 15 22 - - - - 10 - - 17.4 1017.6 0.2
24/03:00am SE 14 21 - - - - 10 - - 17.3 1017.5 0.2
24/02:30am SE 13 21 - - - - 10 - - 17.4 1017.4 0.2
24/02:00am SE 12 19 - - - - 10 - - 17.4 1017.3 0.2
24/01:30am SE 13 25 - - - - 10 - - 17.6 1017.7 0.2
24/01:00am SSE 15 23 - - - - 10 - - 17.8 1017.5 0.2
24/12:30am SSE 14 21 - - - - 10 - - 17.6 1017.7 0.2
24/12:00am SE 11 16 - - - - 10 - - 17.6 1018.2 0.2
 
Date/Time
EST
Wind Sea
Height
m
Swell Vis
km
Cloud Weather Temp
°C
Press
hPa
Rain since
9am
mm
Dir  Spd
kts
Gust
kts
Height
m
Period
s
Dir
23/11:30pm SSE 11 18 - - - - 10 - - 17.7 1018.3 0.2
23/11:00pm SSE 12 18 - - - - 10 - - 17.8 1018.4 0.2
23/10:30pm SSE 11 19 - - - - 10 - - 18.0 1018.4 0.2
23/10:00pm SSE 10 19 - - - - 10 - - 18.1 1018.5 0.2
23/09:30pm SSE 11 18 - - - - 10 - - 18.1 1018.5 0.2
23/09:00pm SSE 10 16 - - - - 10 - - 17.9 1018.2 0.2
23/08:30pm S 8 13 - - - - 10 - - 17.7 1018.0 0.2
23/08:00pm SSE 8 13 - - - - 10 - - 17.7 1017.5 0.2
23/07:30pm SSE 7 11 - - - - 10 - - 17.8 1017.4 0.2
23/07:00pm SSE 8 13 - - - - 10 - - 17.8 1017.0 0.2
23/06:30pm SSE 7 13 - - - - 10 - - 17.9 1016.8 0.2
23/06:00pm SSE 9 12 - - - - 10 Cloudy - 18.4 1016.6 0.2
23/05:30pm SSE 8 13 - - - - 10 - - 18.2 1016.5 0.2
23/05:00pm SSE 10 16 - - - - 10 - - 18.3 1016.2 0.2
23/04:30pm SSE 10 16 - - - - 10 - - 18.2 1016.1 0.2
23/04:00pm SSE 10 15 - - - - 10 - - 18.0 1016.0 0.2
23/03:30pm SSE 12 18 - - - - 10 - - 17.7 1015.7 0.2
23/03:00pm SSE 11 17 - - - - 10 Cloudy - 17.7 1016.2 0.2
23/02:30pm SSE 13 20 - - - - 10 - - 16.7 1016.5 0.2
23/02:00pm SSE 14 21 - - - - 10 - - 16.3 1016.8 0.2

Other formats

Comma delimited format used in spreadsheet applications
http://www.bom.gov.au/fwo/IDQ60701/IDQ60701.94254.axf

JavaScript Object Notation format (JSON) in row-major order
http://www.bom.gov.au/fwo/IDQ60701/IDQ60701.94254.json

Data quality

Most of these data are generated automatically and are frequently updated. Quality checks on data are not normally performed. It is possible for incorrect values to appear. Refer to information at About Latest Weather Observations and please check the disclaimer before using these data.